New Florence, Pennsylvania
Current Conditions -  °F | °C
As of 10:54 PM on Friday 24 Oct 2014 (Local Time) from KJST Reporting Station
Clear Clear  
Wind Chill: 43°   Ceiling: Unl
Heat Index: 48°   Visibility: 10mi
Dew Point: 35°   Wind: 12mph
Humidity: 61%   Direction: 270°W
Pressure: 30.01"   Gusts: NA
Location:  40.38°N, 79.08°W
Report Text: KJST 250254Z AUTO 27010KT 10SM CLR 09/02 A3001 RMK AO2 SLP169 T00890017 51006
Loading
Personal Weather Stations






























Interactive Weather Map
Tropical Storm Tracking
New forecast layout! Learn more

10-Day Weather Forecast

Advertisements
Track Severe Weather on mobile